createdAt,value
2023-03-21T00:00:37.662Z,10.09
2023-03-21T00:01:37.769Z,10.12
2023-03-21T00:02:37.847Z,10.12
2023-03-21T00:03:37.681Z,10.12
2023-03-21T00:04:50.306Z,10.10
2023-03-21T00:05:38.953Z,10.10
2023-03-21T00:06:37.628Z,10.10
2023-03-21T00:07:37.630Z,10.10
2023-03-21T00:08:37.596Z,10.10
2023-03-21T00:09:37.644Z,10.09
2023-03-21T00:10:43.151Z,10.10
2023-03-21T00:11:38.600Z,10.09
2023-03-21T00:12:37.561Z,10.09
2023-03-21T00:13:37.566Z,10.07
2023-03-21T00:14:37.536Z,10.07
2023-03-21T00:15:48.391Z,10.09
2023-03-21T00:16:40.517Z,10.09
2023-03-21T00:17:37.512Z,10.09
2023-03-21T00:18:38.461Z,10.10
2023-03-21T00:19:37.498Z,10.10
2023-03-21T00:20:37.446Z,10.10
2023-03-21T00:21:51.913Z,10.12
2023-03-21T00:22:38.439Z,10.09
2023-03-21T00:23:37.439Z,10.09
2023-03-21T00:24:37.483Z,10.12
2023-03-21T00:25:37.711Z,10.12
2023-03-21T00:26:37.408Z,10.14
2023-03-21T00:27:56.816Z,10.12
2023-03-21T00:28:38.370Z,10.12
2023-03-21T00:29:37.389Z,10.12
2023-03-21T00:30:37.350Z,10.12
2023-03-21T00:31:37.386Z,10.12
2023-03-21T00:32:45.892Z,10.10
2023-03-21T00:33:38.354Z,10.10
2023-03-21T00:34:43.205Z,10.12
2023-03-21T00:36:12.581Z,10.12
2023-03-21T00:36:38.388Z,10.10
2023-03-21T00:37:37.329Z,10.10
2023-03-21T00:38:37.269Z,10.10
2023-03-21T00:39:37.315Z,10.10
2023-03-21T00:40:43.776Z,10.10
2023-03-21T00:41:42.808Z,10.10
2023-03-21T00:42:38.212Z,10.10
2023-03-21T00:43:37.242Z,10.12
2023-03-21T00:44:37.203Z,10.10
2023-03-21T00:45:37.398Z,10.12
2023-03-21T00:47:06.156Z,10.10
2023-03-21T00:47:38.332Z,10.12
2023-03-21T00:48:38.601Z,10.10
2023-03-21T00:49:37.707Z,10.10
2023-03-21T00:50:37.906Z,10.12
2023-03-21T00:51:38.089Z,10.12
2023-03-21T00:52:40.845Z,10.14
2023-03-21T00:53:38.065Z,10.14
2023-03-21T00:54:37.224Z,10.17
2023-03-21T00:55:38.528Z,10.14
2023-03-21T00:56:37.696Z,10.17
2023-03-21T00:57:39.798Z,10.17
2023-03-21T00:58:37.695Z,10.17
2023-03-21T00:59:37.699Z,10.17
2023-03-21T01:00:38.478Z,10.17
2023-03-21T01:01:38.553Z,10.15
2023-03-21T01:02:38.454Z,10.15
2023-03-21T01:03:37.702Z,10.17
2023-03-21T01:04:37.700Z,10.15
2023-03-21T01:05:38.641Z,10.14
2023-03-21T01:06:37.206Z,10.14
2023-03-21T01:07:37.746Z,10.14
2023-03-21T01:08:51.297Z,10.15
2023-03-21T01:09:37.933Z,10.10
2023-03-21T01:10:38.373Z,10.14
2023-03-21T01:11:38.371Z,10.12
2023-03-21T01:12:38.350Z,10.14
2023-03-21T01:13:40.802Z,10.12
2023-03-21T01:14:37.874Z,10.12
2023-03-21T01:15:38.826Z,10.12
2023-03-21T01:16:37.197Z,10.12
2023-03-21T01:17:36.854Z,10.12
2023-03-21T01:18:36.802Z,10.10
2023-03-21T01:19:51.275Z,10.14
2023-03-21T01:21:13.529Z,10.12
2023-03-21T01:21:36.846Z,10.10
2023-03-21T01:22:36.804Z,10.09
2023-03-21T01:23:36.759Z,10.07
2023-03-21T01:24:40.596Z,10.09
2023-03-21T01:25:38.008Z,10.07
2023-03-21T01:26:36.768Z,10.07
2023-03-21T01:27:36.740Z,10.09
2023-03-21T01:28:36.757Z,10.09
2023-03-21T01:29:36.721Z,10.09
2023-03-21T01:30:41.608Z,10.10
2023-03-21T01:31:37.692Z,10.10
2023-03-21T01:32:44.443Z,10.09
2023-03-21T01:33:36.711Z,10.09
2023-03-21T01:34:36.688Z,10.09
2023-03-21T01:35:47.937Z,10.07
2023-03-21T01:36:37.711Z,10.07
2023-03-21T01:37:36.602Z,10.07
2023-03-21T01:38:37.290Z,10.07
2023-03-21T01:39:36.604Z,10.07
2023-03-21T01:40:36.596Z,10.07
2023-03-21T01:41:43.131Z,10.09
2023-03-21T01:42:37.627Z,10.07
2023-03-21T01:43:36.528Z,10.09
2023-03-21T01:44:36.580Z,10.10
2023-03-21T01:45:37.002Z,10.10
2023-03-21T01:46:47.737Z,10.09
2023-03-21T01:47:37.620Z,10.10
2023-03-21T01:48:36.510Z,10.10
2023-03-21T01:49:36.496Z,10.09
2023-03-21T01:50:36.488Z,10.09
2023-03-21T01:51:36.470Z,10.07
2023-03-21T01:52:38.367Z,10.10
2023-03-21T01:53:36.434Z,10.09
2023-03-21T01:54:36.475Z,10.09
2023-03-21T01:55:36.814Z,10.07
2023-03-21T01:56:36.414Z,10.09
2023-03-21T01:57:43.761Z,10.09
2023-03-21T01:58:37.392Z,10.09
2023-03-21T01:59:36.353Z,10.10
2023-03-21T02:00:36.399Z,10.07
2023-03-21T02:01:36.344Z,10.07
2023-03-21T02:02:36.383Z,10.07
2023-03-21T02:03:36.733Z,10.09
2023-03-21T02:04:36.335Z,10.09
2023-03-21T02:05:36.643Z,10.10
2023-03-21T02:06:36.331Z,10.06
2023-03-21T02:07:36.297Z,10.06
2023-03-21T02:08:39.626Z,10.07
2023-03-21T02:09:36.261Z,10.04
2023-03-21T02:10:36.296Z,10.06
2023-03-21T02:11:36.242Z,10.04
2023-03-21T02:12:36.251Z,10.04
2023-03-21T02:13:36.223Z,10.06
2023-03-21T02:14:36.226Z,10.07
2023-03-21T02:15:36.471Z,10.06
2023-03-21T02:16:36.247Z,10.06
2023-03-21T02:17:36.162Z,10.03
2023-03-21T02:18:36.199Z,10.04
2023-03-21T02:19:47.532Z,10.03
2023-03-21T02:20:37.161Z,10.04
2023-03-21T02:21:36.125Z,10.04
2023-03-21T02:22:36.166Z,10.06
2023-03-21T02:23:36.112Z,10.04
2023-03-21T02:24:36.122Z,10.03
2023-03-21T02:25:36.388Z,10.06
2023-03-21T02:26:41.877Z,10.03
2023-03-21T02:27:37.054Z,10.04
2023-03-21T02:28:36.063Z,10.04
2023-03-21T02:29:36.024Z,10.03
2023-03-21T02:30:49.192Z,10.01
2023-03-21T02:31:37.096Z,10.03
2023-03-21T02:32:38.294Z,10.03
2023-03-21T02:33:36.007Z,10.01
2023-03-21T02:34:36.056Z,10.01
2023-03-21T02:35:41.465Z,10.00
2023-03-21T02:36:37.044Z,9.99
2023-03-21T02:37:38.619Z,9.97
2023-03-21T02:38:35.972Z,9.97
2023-03-21T02:39:35.920Z,9.96
2023-03-21T02:40:36.412Z,9.96
2023-03-21T02:41:40.131Z,9.97
2023-03-21T02:42:35.979Z,9.97
2023-03-21T02:43:35.902Z,9.97
2023-03-21T02:44:35.909Z,9.96
2023-03-21T02:45:35.862Z,9.97
2023-03-21T02:46:44.156Z,9.99
2023-03-21T02:47:36.850Z,9.97
2023-03-21T02:48:49.950Z,9.96
2023-03-21T02:49:36.790Z,9.96
2023-03-21T02:50:36.084Z,9.94
2023-03-21T02:51:35.825Z,9.94
2023-03-21T02:52:39.497Z,9.93
2023-03-21T02:53:35.777Z,9.93
2023-03-21T02:54:47.509Z,9.91
2023-03-21T02:55:36.746Z,9.91
2023-03-21T02:56:35.802Z,9.88
2023-03-21T02:57:42.552Z,9.88
2023-03-21T02:58:36.725Z,9.86
2023-03-21T02:59:39.423Z,9.85
2023-03-21T03:00:37.059Z,9.86
2023-03-21T03:01:35.751Z,9.85
2023-03-21T03:02:35.750Z,9.83
2023-03-21T03:03:35.677Z,9.83
2023-03-21T03:04:35.752Z,9.83
2023-03-21T03:05:35.639Z,9.82
2023-03-21T03:06:35.680Z,9.83
2023-03-21T03:07:35.639Z,9.82
2023-03-21T03:08:45.075Z,9.81
2023-03-21T03:09:36.580Z,9.82
2023-03-21T03:10:35.827Z,9.81
2023-03-21T03:11:35.596Z,9.85
2023-03-21T03:12:35.610Z,9.83
2023-03-21T03:13:35.575Z,9.81
2023-03-21T03:14:59.906Z,9.81
2023-03-21T03:15:36.578Z,9.79
2023-03-21T03:16:35.541Z,9.78
2023-03-21T03:17:35.529Z,9.78
2023-03-21T03:18:35.530Z,9.78
2023-03-21T03:19:44.678Z,9.76
2023-03-21T03:20:36.861Z,9.76
2023-03-21T03:21:35.498Z,9.76
2023-03-21T03:22:35.486Z,9.75
2023-03-21T03:23:35.437Z,9.75
2023-03-21T03:24:35.464Z,9.75
2023-03-21T03:25:42.544Z,9.75
2023-03-21T03:26:36.427Z,9.73
2023-03-21T03:27:35.392Z,9.73
2023-03-21T03:28:35.424Z,9.68
2023-03-21T03:29:35.378Z,9.68
2023-03-21T03:30:42.262Z,9.66
2023-03-21T03:31:36.404Z,9.64
2023-03-21T03:32:35.377Z,9.67
2023-03-21T03:33:35.368Z,9.63
2023-03-21T03:34:35.334Z,9.63
2023-03-21T03:35:35.330Z,9.63
2023-03-21T03:36:35.347Z,9.61
2023-03-21T03:37:35.295Z,9.57
2023-03-21T03:38:35.285Z,9.58
2023-03-21T03:39:35.275Z,9.57
2023-03-21T03:40:35.962Z,9.57
2023-03-21T03:42:00.824Z,9.52
2023-03-21T03:42:36.278Z,9.50
2023-03-21T03:43:35.206Z,9.48
2023-03-21T03:44:35.216Z,9.46
2023-03-21T03:45:35.236Z,9.46
2023-03-21T03:46:35.284Z,9.48
2023-03-21T03:47:39.909Z,9.46
2023-03-21T03:48:36.186Z,9.46
2023-03-21T03:49:35.146Z,9.48
2023-03-21T03:50:35.336Z,9.48
2023-03-21T03:51:35.129Z,9.48
2023-03-21T03:52:40.076Z,9.49
2023-03-21T03:53:36.099Z,9.50
2023-03-21T03:54:35.129Z,9.49
2023-03-21T03:55:35.112Z,9.49
2023-03-21T03:56:35.069Z,9.50
2023-03-21T03:57:35.089Z,9.50
2023-03-21T03:58:44.855Z,9.50
2023-03-21T03:59:36.059Z,9.49
2023-03-21T04:00:35.078Z,9.48
2023-03-21T04:01:35.085Z,9.50
2023-03-21T04:02:35.068Z,9.49
2023-03-21T04:03:47.957Z,9.48
2023-03-21T04:04:36.034Z,9.46
2023-03-21T04:05:35.025Z,9.48
2023-03-21T04:06:34.961Z,9.46
2023-03-21T04:07:34.976Z,9.48
2023-03-21T04:08:34.939Z,9.48
2023-03-21T04:09:44.290Z,9.46
2023-03-21T04:10:36.067Z,9.45
2023-03-21T04:11:34.942Z,9.45
2023-03-21T04:12:34.921Z,9.45
2023-03-21T04:13:34.923Z,9.42
2023-03-21T04:14:44.068Z,9.40
2023-03-21T04:15:36.859Z,9.40
2023-03-21T04:16:35.876Z,9.40
2023-03-21T04:17:34.890Z,9.39
2023-03-21T04:18:34.824Z,9.39
2023-03-21T04:19:34.851Z,9.39
2023-03-21T04:20:37.240Z,9.39
2023-03-21T04:21:34.817Z,9.38
2023-03-21T04:22:34.803Z,9.38
2023-03-21T04:23:34.820Z,9.38
2023-03-21T04:24:34.772Z,9.35
2023-03-21T04:25:35.023Z,9.38
2023-03-21T04:26:34.734Z,9.35
2023-03-21T04:27:34.764Z,9.34
2023-03-21T04:28:34.729Z,9.34
2023-03-21T04:29:34.772Z,9.34
2023-03-21T04:30:34.723Z,9.34
2023-03-21T04:31:34.789Z,9.35
2023-03-21T04:32:34.680Z,9.35
2023-03-21T04:33:34.707Z,9.34
2023-03-21T04:34:34.650Z,9.34
2023-03-21T04:35:37.112Z,9.32
2023-03-21T04:36:34.631Z,9.34
2023-03-21T04:37:34.679Z,9.32
2023-03-21T04:38:34.629Z,9.32
2023-03-21T04:39:34.615Z,9.34
2023-03-21T04:40:36.369Z,9.35
2023-03-21T04:41:34.609Z,9.35
2023-03-21T04:42:34.588Z,9.35
2023-03-21T04:43:34.580Z,9.38
2023-03-21T04:44:34.619Z,9.38
2023-03-21T04:45:34.569Z,9.38
2023-03-21T04:46:34.522Z,9.39
2023-03-21T04:47:34.580Z,9.39
2023-03-21T04:48:34.515Z,9.38
2023-03-21T04:49:34.497Z,9.38
2023-03-21T04:50:34.486Z,9.35
2023-03-21T04:51:34.480Z,9.35
2023-03-21T04:52:34.441Z,9.34
2023-03-21T04:53:34.481Z,9.32
2023-03-21T04:54:34.436Z,9.34
2023-03-21T04:55:34.613Z,9.35
2023-03-21T04:56:34.418Z,9.34
2023-03-21T04:57:34.425Z,9.34
2023-03-21T04:58:34.426Z,9.34
2023-03-21T04:59:34.391Z,9.32
2023-03-21T05:00:34.368Z,9.32
2023-03-21T05:01:34.384Z,9.32
2023-03-21T05:02:34.341Z,9.31
2023-03-21T05:03:34.499Z,9.31
2023-03-21T05:04:34.342Z,9.32
2023-03-21T05:05:34.329Z,9.30
2023-03-21T05:06:34.294Z,9.30
2023-03-21T05:07:34.338Z,9.30
2023-03-21T05:08:34.272Z,9.30
2023-03-21T05:09:34.296Z,9.30
2023-03-21T05:10:34.264Z,9.31
2023-03-21T05:11:34.255Z,9.30
2023-03-21T05:12:34.272Z,9.28
2023-03-21T05:13:34.236Z,9.30
2023-03-21T05:14:34.218Z,9.30
2023-03-21T05:15:34.240Z,9.31
2023-03-21T05:16:34.237Z,9.31
2023-03-21T05:17:34.196Z,9.31
2023-03-21T05:18:34.154Z,9.31
2023-03-21T05:19:34.175Z,9.31
2023-03-21T05:20:34.150Z,9.31
2023-03-21T05:21:34.209Z,9.31
2023-03-21T05:22:34.118Z,9.34
2023-03-21T05:23:34.135Z,9.31
2023-03-21T05:24:34.125Z,9.32
2023-03-21T05:25:34.107Z,9.32
2023-03-21T05:26:34.068Z,9.34
2023-03-21T05:27:34.114Z,9.35
2023-03-21T05:28:34.059Z,9.35
2023-03-21T05:29:34.065Z,9.38
2023-03-21T05:30:34.137Z,9.38
2023-03-21T05:31:34.049Z,9.38
2023-03-21T05:32:34.017Z,9.35
2023-03-21T05:33:34.010Z,9.38
2023-03-21T05:34:33.984Z,9.35
2023-03-21T05:35:34.186Z,9.38
2023-03-21T05:36:34.050Z,9.38
2023-03-21T05:37:33.975Z,9.35
2023-03-21T05:38:33.931Z,9.38
2023-03-21T05:39:33.951Z,9.39
2023-03-21T05:40:34.876Z,9.39
2023-03-21T05:41:33.959Z,9.38
2023-03-21T05:42:33.915Z,9.40
2023-03-21T05:43:33.930Z,9.39
2023-03-21T05:44:33.883Z,9.39
2023-03-21T05:45:33.882Z,9.43
2023-03-21T05:46:33.913Z,9.42
2023-03-21T05:47:33.870Z,9.43
2023-03-21T05:48:33.849Z,9.42
2023-03-21T05:49:33.877Z,9.43
2023-03-21T05:50:33.832Z,9.45
2023-03-21T05:51:33.859Z,9.45
2023-03-21T05:52:33.805Z,9.46
2023-03-21T05:53:33.815Z,9.48
2023-03-21T05:54:33.781Z,9.48
2023-03-21T05:55:33.784Z,9.48
2023-03-21T05:56:33.764Z,9.49
2023-03-21T05:57:33.785Z,9.50
2023-03-21T05:58:33.731Z,9.53
2023-03-21T05:59:33.728Z,9.53
2023-03-21T06:00:33.677Z,9.52
2023-03-21T06:01:33.729Z,9.56
2023-03-21T06:02:33.710Z,9.56
2023-03-21T06:03:33.847Z,9.57
2023-03-21T06:04:33.653Z,9.56
2023-03-21T06:05:33.698Z,9.56
2023-03-21T06:06:34.361Z,9.56
2023-03-21T06:07:33.673Z,9.57
2023-03-21T06:08:33.620Z,9.57
2023-03-21T06:09:34.318Z,9.57
2023-03-21T06:10:33.594Z,9.58
2023-03-21T06:11:33.620Z,9.60
2023-03-21T06:12:33.588Z,9.63
2023-03-21T06:13:33.618Z,9.64
2023-03-21T06:14:33.546Z,9.64
2023-03-21T06:15:33.565Z,9.66
2023-03-21T06:16:33.562Z,9.67
2023-03-21T06:17:33.539Z,9.67
2023-03-21T06:18:33.501Z,9.68
2023-03-21T06:19:33.532Z,9.71
2023-03-21T06:20:33.488Z,9.71
2023-03-21T06:21:33.504Z,9.75
2023-03-21T06:22:33.477Z,9.78
2023-03-21T06:23:33.624Z,9.78
2023-03-21T06:24:33.615Z,9.78
2023-03-21T06:25:33.647Z,9.82
2023-03-21T06:26:33.636Z,9.82
2023-03-21T06:27:33.450Z,9.86
2023-03-21T06:28:34.831Z,9.88
2023-03-21T06:29:33.442Z,9.89
2023-03-21T06:30:34.832Z,9.91
2023-03-21T06:31:33.439Z,9.93
2023-03-21T06:32:34.789Z,9.94
2023-03-21T06:33:33.357Z,9.96
2023-03-21T06:34:34.801Z,9.96
2023-03-21T06:35:33.370Z,9.97
2023-03-21T06:36:34.758Z,9.99
2023-03-21T06:37:34.760Z,10.00
2023-03-21T06:38:33.643Z,10.00
2023-03-21T06:39:34.777Z,10.03
2023-03-21T06:40:33.649Z,10.03
2023-03-21T06:41:33.651Z,10.04
2023-03-21T06:42:34.734Z,10.04
2023-03-21T06:43:33.276Z,10.04
2023-03-21T06:44:33.220Z,10.01
2023-03-21T06:45:33.243Z,10.01
2023-03-21T06:46:33.281Z,10.03
2023-03-21T06:47:33.204Z,10.06
2023-03-21T06:48:33.178Z,10.04
2023-03-21T06:49:33.197Z,10.06
2023-03-21T06:50:33.168Z,10.09
2023-03-21T06:51:33.177Z,10.09
2023-03-21T06:52:33.151Z,10.09
2023-03-21T06:53:34.583Z,10.10
2023-03-21T06:54:33.113Z,10.10
2023-03-21T06:55:33.114Z,10.12
2023-03-21T06:56:33.087Z,10.09
2023-03-21T06:57:33.223Z,10.09
2023-03-21T06:58:33.076Z,10.09
2023-03-21T06:59:33.062Z,10.07
2023-03-21T07:00:33.083Z,10.07
2023-03-21T07:01:33.066Z,10.09
2023-03-21T07:02:33.204Z,10.09
2023-03-21T07:03:33.047Z,10.12
2023-03-21T07:04:32.990Z,10.14
2023-03-21T07:05:33.008Z,10.15
2023-03-21T07:06:33.899Z,10.17
2023-03-21T07:07:32.981Z,10.15
2023-03-21T07:08:33.162Z,10.17
2023-03-21T07:09:33.017Z,10.21
2023-03-21T07:10:33.671Z,10.22
2023-03-21T07:11:32.962Z,10.24
2023-03-21T07:12:32.915Z,10.25
2023-03-21T07:13:32.939Z,10.32
2023-03-21T07:14:32.894Z,10.33
2023-03-21T07:15:32.913Z,10.36
2023-03-21T07:16:32.957Z,10.39
2023-03-21T07:17:32.876Z,10.40
2023-03-21T07:18:33.140Z,10.44
2023-03-21T07:19:32.964Z,10.51
2023-03-21T07:20:32.843Z,10.53
2023-03-21T07:21:32.857Z,10.56
2023-03-21T07:22:32.797Z,10.59
2023-03-21T07:23:32.801Z,10.59
2023-03-21T07:24:32.766Z,10.60
2023-03-21T07:25:32.879Z,10.62
2023-03-21T07:26:33.556Z,10.62
2023-03-21T07:27:33.728Z,10.65
2023-03-21T07:28:32.719Z,10.66
2023-03-21T07:29:32.786Z,10.66
2023-03-21T07:30:33.228Z,10.68
2023-03-21T07:31:33.420Z,10.70
2023-03-21T07:32:33.339Z,10.71
2023-03-21T07:33:32.723Z,10.70
2023-03-21T07:34:32.673Z,10.71
2023-03-21T07:35:33.517Z,10.73
2023-03-21T07:36:32.660Z,10.76
2023-03-21T07:37:32.679Z,10.76
2023-03-21T07:38:32.630Z,10.78
2023-03-21T07:39:33.740Z,10.78
2023-03-21T07:40:32.613Z,10.83
2023-03-21T07:41:32.800Z,10.88
2023-03-21T07:43:32.598Z,10.91
2023-03-21T07:44:32.583Z,10.94
2023-03-21T07:45:32.582Z,10.96
2023-03-21T07:46:34.028Z,10.98
2023-03-21T07:47:33.530Z,11.01
2023-03-21T07:48:32.573Z,11.03
2023-03-21T07:49:33.986Z,11.07
2023-03-21T07:50:33.679Z,11.11
2023-03-21T07:51:32.581Z,11.14
2023-03-21T07:52:32.461Z,11.16
2023-03-21T07:53:32.883Z,11.17
2023-03-21T07:54:32.565Z,11.19
2023-03-21T07:55:32.485Z,11.20
2023-03-21T07:56:32.619Z,11.24
2023-03-21T07:57:32.449Z,11.25
2023-03-21T07:58:32.412Z,11.29
2023-03-21T07:59:32.406Z,11.29
2023-03-21T08:00:32.372Z,11.34
2023-03-21T08:01:32.434Z,11.35
2023-03-21T08:02:32.454Z,11.39
2023-03-21T08:03:32.377Z,11.43
2023-03-21T08:04:32.467Z,11.46
2023-03-21T08:05:32.368Z,11.49
2023-03-21T08:06:32.327Z,11.54
2023-03-21T08:07:32.376Z,11.57
2023-03-21T08:08:32.299Z,11.64
2023-03-21T08:09:32.322Z,11.70
2023-03-21T08:10:33.719Z,11.75
2023-03-21T08:11:32.251Z,11.83
2023-03-21T08:12:32.290Z,11.87
2023-03-21T08:13:32.220Z,11.93
2023-03-21T08:14:32.278Z,11.96
2023-03-21T08:15:32.232Z,11.97
2023-03-21T08:16:32.243Z,11.97
2023-03-21T08:17:32.241Z,11.97
2023-03-21T08:18:32.206Z,11.99
2023-03-21T08:19:32.229Z,12.04
2023-03-21T08:20:32.193Z,12.06
2023-03-21T08:21:32.303Z,12.08
2023-03-21T08:22:33.620Z,12.11
2023-03-21T08:23:32.134Z,12.13
2023-03-21T08:24:32.137Z,12.16
2023-03-21T08:25:32.106Z,12.19
2023-03-21T08:26:33.606Z,12.20
2023-03-21T08:27:32.096Z,12.23
2023-03-21T08:28:32.165Z,12.19
2023-03-21T08:29:32.062Z,12.21
2023-03-21T08:30:32.176Z,12.23
2023-03-21T08:31:32.067Z,12.21
2023-03-21T08:32:32.056Z,12.26
2023-03-21T08:33:32.075Z,12.30
2023-03-21T08:34:32.025Z,12.30
2023-03-21T08:35:32.006Z,12.33
2023-03-21T08:36:31.996Z,12.31
2023-03-21T08:37:31.977Z,12.33
2023-03-21T08:38:32.104Z,12.37
2023-03-21T08:39:31.982Z,12.41
2023-03-21T08:40:32.009Z,12.42
2023-03-21T08:41:31.939Z,12.46
2023-03-21T08:42:32.148Z,12.48
2023-03-21T08:43:31.905Z,12.48
2023-03-21T08:44:33.382Z,12.48
2023-03-21T08:45:31.892Z,12.49
2023-03-21T08:46:31.993Z,12.56
2023-03-21T08:47:31.905Z,12.54
2023-03-21T08:48:31.869Z,12.56
2023-03-21T08:49:31.845Z,12.57
2023-03-21T08:50:33.297Z,12.56
2023-03-21T08:51:33.267Z,12.51
2023-03-21T08:52:33.275Z,12.51
2023-03-21T08:53:33.225Z,12.52
2023-03-21T08:54:32.782Z,12.56
2023-03-21T08:55:33.239Z,12.54
2023-03-21T08:56:33.643Z,12.57
2023-03-21T08:57:32.516Z,12.59
2023-03-21T08:58:33.205Z,12.60
2023-03-21T08:59:31.762Z,12.60
2023-03-21T09:00:33.206Z,12.63
2023-03-21T09:01:33.192Z,12.66
2023-03-21T09:02:33.188Z,12.67
2023-03-21T09:03:33.153Z,12.69
2023-03-21T09:04:33.208Z,12.69
2023-03-21T09:05:33.117Z,12.70
2023-03-21T09:06:33.146Z,12.71
2023-03-21T09:07:33.114Z,12.75
2023-03-21T09:08:32.578Z,12.75
2023-03-21T09:09:33.061Z,12.74
2023-03-21T09:10:33.075Z,12.71
2023-03-21T09:11:32.370Z,12.71
2023-03-21T09:12:31.685Z,12.74
2023-03-21T09:13:33.014Z,12.75
2023-03-21T09:14:31.618Z,12.78
2023-03-21T09:15:31.564Z,12.78
2023-03-21T09:16:31.696Z,12.79
2023-03-21T09:17:32.974Z,12.79
2023-03-21T09:18:31.529Z,12.81
2023-03-21T09:19:31.584Z,12.84
2023-03-21T09:20:33.100Z,12.85
2023-03-21T09:21:31.541Z,12.87
2023-03-21T09:22:31.514Z,12.87
2023-03-21T09:23:32.906Z,12.84
2023-03-21T09:24:31.496Z,12.81
2023-03-21T09:25:32.896Z,12.81
2023-03-21T09:26:32.899Z,12.82
2023-03-21T09:27:31.488Z,12.81
2023-03-21T09:28:31.418Z,12.81
2023-03-21T09:29:31.547Z,12.78
2023-03-21T09:30:31.425Z,12.79
2023-03-21T09:31:31.622Z,12.74
2023-03-21T09:32:31.512Z,12.67
2023-03-21T09:33:32.809Z,12.64
2023-03-21T09:34:32.800Z,12.64
2023-03-21T09:35:32.781Z,12.63
2023-03-21T09:36:32.779Z,12.57
2023-03-21T09:37:31.578Z,12.57
2023-03-21T09:38:32.777Z,12.57
2023-03-21T09:39:31.336Z,12.60
2023-03-21T09:40:31.531Z,12.62
2023-03-21T09:41:31.252Z,12.64
2023-03-21T09:42:31.262Z,12.64
2023-03-21T09:43:32.701Z,12.66
2023-03-21T09:44:31.271Z,12.66
2023-03-21T09:45:31.225Z,12.66
2023-03-21T09:46:32.686Z,12.67
2023-03-21T09:47:32.635Z,12.66
2023-03-21T09:48:32.694Z,12.69
2023-03-21T09:49:31.352Z,12.67
2023-03-21T09:50:31.192Z,12.67
2023-03-21T09:51:31.145Z,12.67
2023-03-21T09:52:31.530Z,12.67
2023-03-21T09:53:32.612Z,12.69
2023-03-21T09:54:32.087Z,12.70
2023-03-21T09:55:31.098Z,12.69
2023-03-21T09:56:31.105Z,12.74
2023-03-21T09:57:32.555Z,12.71
2023-03-21T09:58:31.137Z,12.75
2023-03-21T09:59:33.379Z,12.75
2023-03-21T10:00:31.573Z,12.78
2023-03-21T10:01:32.479Z,12.81
2023-03-21T10:02:32.496Z,12.82
2023-03-21T10:03:31.152Z,12.85
2023-03-21T10:04:31.033Z,12.85
2023-03-21T10:05:31.014Z,12.87
2023-03-21T10:06:31.031Z,12.89
2023-03-21T10:07:31.562Z,12.93
2023-03-21T10:08:30.985Z,12.93
2023-03-21T10:09:31.752Z,12.97
2023-03-21T10:10:30.978Z,12.99
2023-03-21T10:11:30.963Z,13.02
2023-03-21T10:12:30.935Z,13.03
2023-03-21T10:13:30.895Z,13.07
2023-03-21T10:14:31.076Z,13.12
2023-03-21T10:15:30.885Z,13.14
2023-03-21T10:16:31.004Z,13.14
2023-03-21T10:17:31.332Z,13.15
2023-03-21T10:18:31.838Z,13.20
2023-03-21T10:19:31.797Z,13.24
2023-03-21T10:20:30.845Z,13.30
2023-03-21T10:21:59.137Z,13.36
2023-03-21T10:22:33.281Z,13.40
2023-03-21T10:23:30.838Z,13.43
2023-03-21T10:24:31.186Z,13.49
2023-03-21T10:25:30.754Z,13.54
2023-03-21T10:26:30.806Z,13.55
2023-03-21T10:27:30.761Z,13.61
2023-03-21T10:28:34.503Z,13.67
2023-03-21T10:29:32.618Z,13.70
2023-03-21T10:30:30.752Z,13.71
2023-03-21T10:31:30.751Z,13.73
2023-03-21T10:32:30.747Z,13.76
2023-03-21T10:33:30.741Z,13.80
2023-03-21T10:34:32.171Z,13.81
2023-03-21T10:35:30.680Z,13.84
2023-03-21T10:36:30.672Z,13.84
2023-03-21T10:37:30.735Z,13.81
2023-03-21T10:38:30.635Z,13.76
2023-03-21T10:39:30.657Z,13.73
2023-03-21T10:40:30.668Z,13.71
2023-03-21T10:41:30.613Z,13.69
2023-03-21T10:42:30.597Z,13.56
2023-03-21T10:43:30.583Z,13.52
2023-03-21T10:44:30.653Z,13.47
2023-03-21T10:45:30.583Z,13.40
2023-03-21T10:46:33.455Z,13.36
2023-03-21T10:47:30.928Z,13.36
2023-03-21T10:48:30.919Z,13.33
2023-03-21T10:49:31.416Z,13.33
2023-03-21T10:50:31.561Z,13.29
2023-03-21T10:51:31.966Z,13.27
2023-03-21T10:52:30.536Z,13.24
2023-03-21T10:53:30.526Z,13.24
2023-03-21T10:54:31.431Z,13.21
2023-03-21T10:55:30.777Z,13.20
2023-03-21T10:56:30.731Z,13.20
2023-03-21T10:57:30.774Z,13.20
2023-03-21T10:58:30.749Z,13.14
2023-03-21T10:59:30.635Z,13.07
2023-03-21T11:00:30.629Z,13.02
2023-03-21T11:01:30.896Z,12.99
2023-03-21T11:02:30.790Z,12.97
2023-03-21T11:03:30.498Z,12.99
2023-03-21T11:04:30.788Z,13.02
2023-03-21T11:05:30.326Z,13.04
2023-03-21T11:06:30.355Z,13.07
2023-03-21T11:07:30.327Z,13.09
2023-03-21T11:08:31.808Z,13.12
2023-03-21T11:09:30.305Z,13.14
2023-03-21T11:10:30.457Z,13.18
2023-03-21T11:11:30.305Z,13.20
2023-03-21T11:12:30.273Z,13.17
2023-03-21T11:13:30.255Z,13.15
2023-03-21T11:14:30.282Z,13.14
2023-03-21T11:15:30.247Z,13.07
2023-03-21T11:16:30.320Z,13.06
2023-03-21T11:17:30.196Z,13.06
2023-03-21T11:18:30.313Z,13.06
2023-03-21T11:19:30.202Z,13.04
2023-03-21T11:20:30.191Z,12.99
2023-03-21T11:21:30.191Z,13.00
2023-03-21T11:22:30.176Z,12.99
2023-03-21T11:23:30.150Z,12.97
2023-03-21T11:24:30.128Z,12.96
2023-03-21T11:25:30.128Z,12.96
2023-03-21T11:26:30.151Z,12.97
2023-03-21T11:27:30.109Z,12.99
2023-03-21T11:28:30.107Z,13.02
2023-03-21T11:29:30.070Z,13.00
2023-03-21T11:30:30.158Z,13.00
2023-03-21T11:31:30.038Z,13.02
2023-03-21T11:32:30.098Z,13.02
2023-03-21T11:33:30.031Z,13.00
2023-03-21T11:34:30.069Z,13.02
2023-03-21T11:35:30.015Z,13.03
2023-03-21T11:36:30.087Z,13.04
2023-03-21T11:37:30.134Z,13.06
2023-03-21T11:38:30.018Z,13.06
2023-03-21T11:39:29.967Z,13.04
2023-03-21T11:40:29.986Z,13.03
2023-03-21T11:41:29.958Z,13.03
2023-03-21T11:42:29.965Z,13.00
2023-03-21T11:43:29.915Z,13.02
2023-03-21T11:44:29.935Z,13.02
2023-03-21T11:45:29.923Z,12.97
2023-03-21T11:46:29.930Z,12.92
2023-03-21T11:47:29.884Z,12.89
2023-03-21T11:48:29.959Z,12.89
2023-03-21T11:49:29.868Z,12.89
2023-03-21T11:50:29.888Z,12.84
2023-03-21T11:51:29.837Z,12.85
2023-03-21T11:52:32.327Z,12.87
2023-03-21T11:53:29.824Z,12.84
2023-03-21T11:54:29.822Z,12.84
2023-03-21T11:55:29.812Z,12.81
2023-03-21T11:56:29.811Z,12.79
2023-03-21T11:57:29.799Z,12.75
2023-03-21T11:58:30.471Z,12.74
2023-03-21T11:59:29.744Z,12.74
2023-03-21T12:00:29.796Z,12.75
2023-03-21T12:01:29.723Z,12.77
2023-03-21T12:02:29.774Z,12.71
2023-03-21T12:03:35.334Z,12.70
2023-03-21T12:04:30.824Z,12.67
2023-03-21T12:05:29.662Z,12.66
2023-03-21T12:06:29.709Z,12.64
2023-03-21T12:07:29.926Z,12.66
2023-03-21T12:08:29.676Z,12.64
2023-03-21T12:09:29.644Z,12.60
2023-03-21T12:10:29.645Z,12.63
2023-03-21T12:11:29.598Z,12.63
2023-03-21T12:12:38.464Z,12.63
2023-03-21T12:13:30.618Z,12.60
2023-03-21T12:14:29.604Z,12.64
2023-03-21T12:15:29.565Z,12.63
2023-03-21T12:16:29.656Z,12.64
2023-03-21T12:17:29.553Z,12.66
2023-03-21T12:18:29.584Z,12.63
2023-03-21T12:19:29.515Z,12.62
2023-03-21T12:20:29.545Z,12.60
2023-03-21T12:21:29.475Z,12.56
2023-03-21T12:22:29.518Z,12.54
2023-03-21T12:23:29.568Z,12.54
2023-03-21T12:24:29.480Z,12.52
2023-03-21T12:25:29.444Z,12.56
2023-03-21T12:26:29.463Z,12.57
2023-03-21T12:27:29.459Z,12.60
2023-03-21T12:28:33.074Z,12.66
2023-03-21T12:29:29.453Z,12.69
2023-03-21T12:30:29.408Z,12.69
2023-03-21T12:31:29.450Z,12.67
2023-03-21T12:32:29.366Z,12.66
2023-03-21T12:33:29.390Z,12.66
2023-03-21T12:34:29.349Z,12.64
2023-03-21T12:35:30.233Z,12.63
2023-03-21T12:36:29.342Z,12.64
2023-03-21T12:37:29.321Z,12.60
2023-03-21T12:38:29.319Z,12.63
2023-03-21T12:39:29.321Z,12.64
2023-03-21T12:40:29.274Z,12.66
2023-03-21T12:41:29.298Z,12.69
2023-03-21T12:42:29.305Z,12.70
2023-03-21T12:43:29.263Z,12.74
2023-03-21T12:44:29.252Z,12.75
2023-03-21T12:45:37.387Z,12.75
2023-03-21T12:46:30.286Z,12.77
2023-03-21T12:47:29.270Z,12.79
2023-03-21T12:48:29.184Z,12.78
2023-03-21T12:49:29.201Z,12.81
2023-03-21T12:50:29.177Z,12.81
2023-03-21T12:51:29.175Z,12.78
2023-03-21T12:52:29.170Z,12.82
2023-03-21T12:53:29.166Z,12.79
2023-03-21T12:54:30.070Z,12.77
2023-03-21T12:55:29.154Z,12.79
2023-03-21T12:56:29.114Z,12.82
2023-03-21T12:57:29.109Z,12.81
2023-03-21T12:58:29.075Z,12.84
2023-03-21T12:59:29.100Z,12.87
2023-03-21T13:00:29.098Z,12.85
2023-03-21T13:01:29.158Z,12.85